Time;durP1;ratioP1;P1;durP2;ratioP2;P2;SDS_P1;SDS_P2;PMS_P1;PMS_P2;Temp;Humidity;BMP_temperature;BMP_pressure;BME280_temperature;BME280_humidity;BME280_pressure;Samples;Min_cycle;Max_cycle;Signal;HPM_P1;HPM_P2
2021/11/20 00:00:19;;;;;;;9.33;6.90;;;7.10;99.90;;;;;;4992181;28;20412;-73
2021/11/20 00:02:45;;;;;;;9.50;6.83;;;7.00;99.90;;;;;;4993214;28;20936;-70
2021/11/20 00:05:14;;;;;;;11.20;8.30;;;7.00;99.90;;;;;;4993509;28;20424;-73
2021/11/20 00:07:39;;;;;;;11.70;7.93;;;7.00;99.90;;;;;;4993355;28;20441;-72
2021/11/20 00:10:09;;;;;;;10.90;7.90;;;7.00;99.90;;;;;;4993430;28;20382;-73
2021/11/20 00:12:35;;;;;;;11.87;7.77;;;7.00;99.90;;;;;;4992327;28;20196;-73
2021/11/20 00:15:00;;;;;;;12.30;8.47;;;7.00;99.90;;;;;;4993253;28;20558;-72
2021/11/20 00:17:27;;;;;;;9.77;7.27;;;7.00;99.90;;;;;;4993144;28;20286;-72
2021/11/20 00:19:52;;;;;;;11.47;8.70;;;7.00;99.90;;;;;;4993368;28;20251;-72
2021/11/20 00:22:25;;;;;;;12.13;8.00;;;7.00;99.90;;;;;;4999898;28;20459;-73
2021/11/20 00:24:56;;;;;;;13.20;8.00;;;7.00;99.90;;;;;;4994307;28;20175;-72
2021/11/20 00:27:25;;;;;;;10.47;8.77;;;7.00;99.90;;;;;;4993027;28;20815;-73
2021/11/20 00:30:02;;;;;;;12.13;8.00;;;7.00;99.90;;;;;;4991815;28;20857;-73
2021/11/20 00:32:32;;;;;;;10.70;7.87;;;7.00;99.90;;;;;;4992770;28;20498;-74
2021/11/20 00:35:01;;;;;;;13.60;8.53;;;7.00;99.90;;;;;;4992692;28;20466;-74
2021/11/20 00:37:27;;;;;;;12.17;9.80;;;7.00;99.90;;;;;;4992810;28;20420;-72
2021/11/20 00:39:53;;;;;;;11.23;7.90;;;7.00;99.90;;;;;;4992801;28;20441;-73
2021/11/20 00:42:19;;;;;;;10.60;7.57;;;7.00;99.90;;;;;;4992602;28;20462;-73
2021/11/20 00:44:46;;;;;;;13.17;8.43;;;7.00;99.90;;;;;;4977817;28;20192;-73
2021/11/20 00:47:12;;;;;;;12.50;8.93;;;7.00;99.90;;;;;;4973110;28;20434;-73
2021/11/20 00:49:37;;;;;;;11.53;7.63;;;7.00;99.90;;;;;;4973412;28;20398;-73
2021/11/20 00:52:05;;;;;;;12.07;8.70;;;7.00;99.90;;;;;;4971977;28;20678;-73
2021/11/20 00:54:30;;;;;;;15.83;9.20;;;7.00;99.90;;;;;;4972538;28;20209;-72
2021/11/20 00:56:56;;;;;;;11.73;8.50;;;7.00;99.90;;;;;;4971410;28;20543;-72
2021/11/20 00:59:22;;;;;;;11.50;8.43;;;7.00;99.90;;;;;;4973070;28;20181;-72
2021/11/20 05:31:04;;;;;;;18.73;9.33;;;7.00;99.90;;;;;;5776136;23;21354;-68
2021/11/20 05:33:34;;;;;;;17.13;9.53;;;7.00;99.90;;;;;;4967820;28;20895;-70
2021/11/20 05:36:00;;;;;;;16.73;9.73;;;7.00;99.90;;;;;;4966881;28;20908;-72
2021/11/20 05:38:26;;;;;;;14.70;10.07;;;7.00;99.90;;;;;;4978886;28;20424;-73
2021/11/20 05:40:52;;;;;;;15.40;10.10;;;7.10;99.90;;;;;;4992762;28;20433;-73
2021/11/20 05:43:19;;;;;;;14.63;9.93;;;7.10;99.90;;;;;;4984553;28;20185;-73
2021/11/20 05:45:53;;;;;;;17.33;10.17;;;7.10;99.90;;;;;;4979357;28;20182;-73
2021/11/20 05:48:19;;;;;;;16.57;9.50;;;7.10;99.90;;;;;;4978725;28;20477;-72
2021/11/20 05:50:45;;;;;;;18.43;9.77;;;7.10;99.90;;;;;;4979302;28;20901;-73
2021/11/20 05:53:20;;;;;;;14.37;9.77;;;7.10;99.90;;;;;;4978545;28;20668;-72
2021/11/20 05:55:48;;;;;;;19.80;11.53;;;7.10;99.90;;;;;;4985971;28;20422;-73
2021/11/20 05:58:14;;;;;;;18.83;10.37;;;7.10;99.90;;;;;;4979176;28;20392;-72
2021/11/20 06:00:46;;;;;;;18.10;9.50;;;7.10;99.90;;;;;;4979048;28;20414;-73
2021/11/20 06:03:13;;;;;;;13.47;8.53;;;7.10;99.90;;;;;;4978462;28;20458;-71
2021/11/20 06:05:40;;;;;;;16.50;10.27;;;7.10;99.90;;;;;;4978875;28;20412;-73
2021/11/20 06:08:06;;;;;;;11.63;7.80;;;7.20;99.90;;;;;;4978916;28;20787;-73
2021/11/20 06:10:34;;;;;;;13.33;8.20;;;7.20;99.90;;;;;;4978886;28;20441;-73
2021/11/20 06:13:00;;;;;;;16.20;9.03;;;7.20;99.90;;;;;;4978500;28;20478;-73
2021/11/20 06:15:26;;;;;;;20.90;9.97;;;7.20;99.90;;;;;;4977807;28;20430;-74
2021/11/20 06:17:52;;;;;;;12.60;8.20;;;7.20;99.90;;;;;;4977569;28;20433;-72
2021/11/20 06:20:18;;;;;;;16.30;10.50;;;7.20;99.90;;;;;;4978670;28;20403;-73
2021/11/20 06:22:44;;;;;;;19.27;11.33;;;7.20;99.90;;;;;;4978476;28;20425;-72
2021/11/20 06:25:10;;;;;;;15.03;9.93;;;7.20;99.90;;;;;;4978673;28;20415;-73
2021/11/20 06:27:36;;;;;;;18.73;9.10;;;7.20;99.90;;;;;;4978602;28;20248;-73
2021/11/20 06:30:04;;;;;;;14.63;9.43;;;7.20;99.90;;;;;;4978655;28;20879;-73
2021/11/20 06:32:30;;;;;;;13.20;9.43;;;7.30;99.90;;;;;;4978105;28;20216;-74
2021/11/20 06:34:55;;;;;;;13.80;9.13;;;7.30;99.90;;;;;;4978510;28;20475;-73
2021/11/20 06:37:21;;;;;;;14.30;9.97;;;7.30;99.90;;;;;;4978509;28;20186;-74
2021/11/20 06:39:47;;;;;;;15.83;9.67;;;7.20;99.90;;;;;;4977481;28;20179;-72
2021/11/20 06:42:13;;;;;;;18.03;9.47;;;7.30;99.90;;;;;;4979952;28;20200;-72
2021/11/20 06:44:39;;;;;;;17.07;10.70;;;7.20;99.90;;;;;;4985375;28;20255;-72
2021/11/20 06:47:05;;;;;;;17.30;11.03;;;7.30;99.90;;;;;;4979191;28;20460;-72
2021/11/20 06:49:32;;;;;;;17.20;11.17;;;7.30;99.90;;;;;;4978340;28;20665;-73
2021/11/20 06:51:57;;;;;;;15.10;9.87;;;7.30;99.90;;;;;;4986993;28;20199;-72
2021/11/20 06:54:23;;;;;;;17.37;10.07;;;7.30;99.90;;;;;;4994700;28;20980;-71
2021/11/20 06:57:12;;;;;;;17.40;10.93;;;7.30;99.90;;;;;;4994776;28;20640;-71
2021/11/20 07:02:20;;;;;;;17.20;11.10;;;7.20;99.90;;;;;;4994868;28;20521;-74
2021/11/20 07:04:46;;;;;;;20.27;12.50;;;7.30;99.90;;;;;;4980442;28;20438;-72
2021/11/20 07:07:13;;;;;;;19.40;12.43;;;7.30;99.90;;;;;;4975317;28;20479;-72
2021/11/20 07:09:39;;;;;;;16.40;11.20;;;7.20;99.90;;;;;;4974925;28;20643;-72
2021/11/20 07:12:06;;;;;;;17.10;10.93;;;7.20;99.90;;;;;;4975211;28;20441;-72
2021/11/20 07:14:32;;;;;;;15.23;10.00;;;7.30;99.90;;;;;;4974475;28;20487;-72
2021/11/20 07:16:58;;;;;;;17.37;10.97;;;7.30;99.90;;;;;;4975283;28;20527;-72
2021/11/20 07:19:23;;;;;;;17.20;11.13;;;7.30;99.90;;;;;;4974991;28;20449;-72
2021/11/20 07:21:49;;;;;;;13.37;9.73;;;7.30;99.90;;;;;;4974966;28;20248;-75
2021/11/20 07:24:18;;;;;;;15.20;9.33;;;7.40;99.90;;;;;;4974956;28;20602;-74
2021/11/20 07:26:46;;;;;;;17.37;10.63;;;7.40;99.90;;;;;;4974850;28;20201;-72
2021/11/20 07:29:12;;;;;;;20.00;11.17;;;7.40;99.90;;;;;;4975030;28;20426;-73
2021/11/20 07:31:38;;;;;;;16.97;11.17;;;7.40;99.90;;;;;;4974428;28;20459;-71
2021/11/20 07:34:04;;;;;;;17.20;11.40;;;7.50;99.90;;;;;;4974540;28;20468;-73
2021/11/20 07:36:35;;;;;;;22.20;11.23;;;7.50;99.90;;;;;;4974744;28;20205;-73
2021/11/20 07:39:03;;;;;;;19.97;11.13;;;7.50;99.90;;;;;;4973644;28;20430;-72
2021/11/20 07:41:28;;;;;;;17.30;10.43;;;7.60;99.90;;;;;;4974527;28;20517;-72
2021/11/20 07:43:55;;;;;;;20.80;12.37;;;7.60;99.90;;;;;;4974251;28;20429;-71
2021/11/20 07:46:21;;;;;;;16.77;11.80;;;7.60;99.90;;;;;;4974569;28;20231;-72
2021/11/20 07:48:47;;;;;;;17.83;10.57;;;7.60;99.90;;;;;;4972404;28;20441;-73
2021/11/20 07:51:15;;;;;;;18.20;12.20;;;7.70;99.90;;;;;;4975028;28;20469;-71
2021/11/20 07:53:42;;;;;;;23.90;12.50;;;7.70;99.90;;;;;;4973750;28;20512;-72
2021/11/20 07:56:08;;;;;;;27.63;13.30;;;7.70;99.90;;;;;;4992310;28;20432;-72
2021/11/20 07:58:36;;;;;;;20.60;10.73;;;7.70;99.90;;;;;;4993384;28;20451;-71
2021/11/20 08:01:03;;;;;;;17.80;11.40;;;7.80;99.90;;;;;;4994126;28;20443;-73
2021/11/20 08:03:28;;;;;;;21.53;12.10;;;7.70;99.90;;;;;;4990887;28;20474;-70
2021/11/20 08:05:55;;;;;;;21.37;11.20;;;7.80;99.90;;;;;;4973677;28;20431;-71
2021/11/20 08:08:21;;;;;;;19.50;12.23;;;7.90;99.90;;;;;;4973789;28;20189;-71
2021/11/20 08:10:48;;;;;;;19.33;11.10;;;7.90;99.90;;;;;;4985062;28;20427;-72
2021/11/20 08:13:15;;;;;;;17.50;11.20;;;7.90;99.90;;;;;;4993252;28;20495;-71
2021/11/20 08:15:41;;;;;;;18.50;11.57;;;7.90;99.90;;;;;;4975575;28;20819;-71
2021/11/20 08:18:06;;;;;;;21.70;11.57;;;7.90;99.90;;;;;;4974445;28;20425;-72
2021/11/20 08:20:36;;;;;;;22.17;12.80;;;7.90;99.90;;;;;;4974111;28;20429;-71
2021/11/20 08:23:03;;;;;;;17.93;12.70;;;7.90;99.90;;;;;;4973878;28;20236;-71
2021/11/20 08:25:30;;;;;;;20.77;12.27;;;7.90;99.90;;;;;;4973996;28;20422;-71
2021/11/20 08:27:56;;;;;;;22.30;11.97;;;7.90;99.90;;;;;;4973968;28;20421;-72
2021/11/20 08:30:27;;;;;;;21.03;13.10;;;7.90;99.90;;;;;;4974154;28;20794;-72
2021/11/20 08:32:54;;;;;;;17.50;12.10;;;7.80;99.90;;;;;;4973638;28;20501;-71
2021/11/20 08:35:21;;;;;;;18.37;12.33;;;7.90;99.90;;;;;;4974484;28;20477;-72
2021/11/20 08:37:47;;;;;;;24.23;11.60;;;7.90;99.90;;;;;;4975506;28;20412;-70
2021/11/20 08:40:14;;;;;;;19.07;11.40;;;7.90;99.90;;;;;;4973914;28;20866;-71
2021/11/20 08:42:41;;;;;;;19.30;12.57;;;7.90;99.90;;;;;;4973041;28;20431;-71
2021/11/20 08:45:11;;;;;;;23.03;11.03;;;8.00;99.90;;;;;;4973356;28;20416;-71
2021/11/20 08:47:37;;;;;;;20.07;13.27;;;7.90;99.90;;;;;;4973299;28;20826;-71
2021/11/20 08:50:08;;;;;;;21.47;13.07;;;7.90;99.90;;;;;;4972276;28;20412;-71
2021/11/20 08:52:33;;;;;;;25.37;14.20;;;8.00;99.90;;;;;;4972913;28;20498;-71
2021/11/20 08:54:59;;;;;;;20.77;12.80;;;8.00;99.90;;;;;;4973363;28;20475;-70
2021/11/20 08:57:25;;;;;;;16.40;10.90;;;8.10;99.90;;;;;;4973596;28;20695;-72
2021/11/20 08:59:51;;;;;;;21.27;12.93;;;8.10;99.90;;;;;;4973180;28;20188;-72
2021/11/20 09:02:34;;;;;;;23.60;12.23;;;8.20;99.90;;;;;;4974383;28;20210;-71
2021/11/20 09:05:11;;;;;;;26.73;13.70;;;8.20;99.90;;;;;;4992427;28;20421;-73
2021/11/20 09:07:51;;;;;;;24.33;13.50;;;8.20;99.90;;;;;;4992717;28;20452;-72
2021/11/20 09:11:00;;;;;;;19.80;12.00;;;8.30;99.90;;;;;;4992481;28;20425;-73
2021/11/20 09:13:30;;;;;;;19.80;12.47;;;8.30;99.90;;;;;;4992092;28;20488;-73
2021/11/20 09:16:01;;;;;;;22.37;12.33;;;8.40;99.90;;;;;;4992032;28;20940;-71
2021/11/20 09:18:29;;;;;;;23.43;12.53;;;8.40;99.90;;;;;;4992388;28;20398;-72
2021/11/20 09:20:55;;;;;;;21.43;13.30;;;8.40;99.90;;;;;;4992272;28;20525;-72
2021/11/20 09:23:22;;;;;;;22.07;12.70;;;8.40;99.90;;;;;;4992526;28;20497;-73
2021/11/20 09:25:48;;;;;;;17.80;11.20;;;8.30;99.90;;;;;;4991168;28;20431;-72
2021/11/20 09:28:16;;;;;;;20.97;10.47;;;8.30;99.90;;;;;;4992322;28;20417;-70
2021/11/20 09:30:46;;;;;;;16.23;8.90;;;8.30;99.90;;;;;;4991823;28;20427;-73
2021/11/20 09:33:13;;;;;;;13.33;9.27;;;8.30;99.90;;;;;;4991884;28;20495;-72
2021/11/20 09:35:40;;;;;;;12.80;8.13;;;8.30;99.90;;;;;;4992004;28;20919;-73
2021/11/20 09:38:06;;;;;;;14.97;9.00;;;8.20;99.90;;;;;;4992179;28;20436;-72
2021/11/20 09:40:36;;;;;;;19.30;8.60;;;8.20;99.90;;;;;;4991905;28;20412;-71
2021/11/20 09:43:04;;;;;;;15.23;9.23;;;8.20;99.90;;;;;;4991564;28;20180;-71
2021/11/20 09:45:38;;;;;;;11.10;7.83;;;8.20;99.90;;;;;;4992034;28;20444;-71
2021/11/20 09:48:21;;;;;;;11.10;7.33;;;8.20;99.90;;;;;;4991820;28;20412;-70
2021/11/20 09:51:00;;;;;;;11.73;7.57;;;8.30;99.90;;;;;;4992000;28;20504;-71
2021/11/20 09:53:26;;;;;;;15.73;7.30;;;8.30;99.90;;;;;;4991759;28;20948;-73
2021/11/20 09:55:57;;;;;;;11.53;7.60;;;8.50;99.90;;;;;;4974936;28;20436;-72
2021/11/20 09:58:49;;;;;;;9.93;6.43;;;8.50;99.90;;;;;;4972344;28;20200;-73
2021/11/20 10:01:32;;;;;;;7.13;5.43;;;8.50;99.90;;;;;;4980848;28;20794;-73
2021/11/20 10:03:58;;;;;;;18.40;10.10;;;8.60;99.90;;;;;;4991292;28;20432;-72
2021/11/20 10:06:30;;;;;;;15.40;10.27;;;8.60;99.90;;;;;;4992048;28;20417;-71
2021/11/20 10:09:30;;;;;;;18.60;11.23;;;8.70;99.90;;;;;;4991488;28;20240;-72
2021/11/20 10:12:04;;;;;;;10.10;5.60;;;8.70;99.90;;;;;;4986950;28;20425;-74
2021/11/20 10:14:49;;;;;;;6.03;4.87;;;8.70;99.90;;;;;;4952525;29;20492;-72
2021/11/20 10:17:37;;;;;;;7.63;5.17;;;8.70;99.90;;;;;;4971181;28;20433;-72
2021/11/20 10:20:31;;;;;;;6.00;4.07;;;8.70;99.90;;;;;;4972228;28;20892;-71
2021/11/20 10:23:17;;;;;;;4.73;3.47;;;8.70;99.90;;;;;;4987488;28;20382;-71
2021/11/20 10:26:13;;;;;;;5.43;4.07;;;8.70;99.90;;;;;;4991558;28;20393;-70
2021/11/20 10:29:02;;;;;;;5.50;4.37;;;8.70;99.90;;;;;;4993984;28;20475;-71
2021/11/20 10:31:33;;;;;;;6.10;3.80;;;8.60;99.90;;;;;;4983151;28;20461;-71
2021/11/20 10:34:06;;;;;;;4.27;3.03;;;8.60;99.90;;;;;;4976238;28;20479;-71
2021/11/20 10:36:56;;;;;;;4.03;3.30;;;8.60;99.90;;;;;;4975507;28;20470;-71
2021/11/20 10:39:33;;;;;;;5.80;2.70;;;8.60;99.90;;;;;;4975045;28;20403;-71
2021/11/20 10:42:04;;;;;;;7.83;2.90;;;8.60;99.90;;;;;;4975101;28;20455;-70
2021/11/20 10:44:39;;;;;;;3.97;3.10;;;8.50;99.90;;;;;;4986972;28;20922;-71
2021/11/20 10:47:14;;;;;;;5.53;3.53;;;8.50;99.90;;;;;;4985113;28;20440;-72
2021/11/20 10:49:47;;;;;;;7.10;3.73;;;8.50;99.90;;;;;;4990302;28;20408;-71
2021/11/20 10:52:53;;;;;;;4.83;3.40;;;8.50;99.90;;;;;;4995488;28;20435;-72
2021/11/20 10:55:37;;;;;;;5.37;3.60;;;8.60;99.90;;;;;;4987110;28;20473;-72
2021/11/20 10:58:21;;;;;;;5.90;4.13;;;8.60;99.90;;;;;;4974546;28;20450;-72
2021/11/20 11:00:53;;;;;;;5.23;4.50;;;8.40;99.90;;;;;;4975364;28;20193;-72
2021/11/20 11:03:34;;;;;;;8.70;4.90;;;8.30;99.90;;;;;;4970400;28;20417;-73
2021/11/20 11:05:59;;;;;;;7.00;4.10;;;8.30;99.90;;;;;;4975654;28;20778;-71
2021/11/20 11:08:44;;;;;;;7.53;5.43;;;8.40;99.90;;;;;;4974900;28;20409;-70
2021/11/20 11:11:28;;;;;;;8.70;5.37;;;8.40;99.90;;;;;;4975601;28;20197;-71
2021/11/20 11:14:02;;;;;;;10.13;6.10;;;8.50;99.90;;;;;;4975318;28;20463;-71
2021/11/20 11:16:35;;;;;;;5.23;3.90;;;8.50;99.90;;;;;;4973691;28;20505;-71
2021/11/20 11:19:18;;;;;;;7.17;4.30;;;8.60;99.90;;;;;;4975741;28;20417;-71
2021/11/20 11:22:01;;;;;;;9.03;4.63;;;8.60;99.90;;;;;;4975019;28;20441;-72
2021/11/20 11:24:49;;;;;;;9.70;6.85;;;8.60;99.90;;;;;;4972224;28;20408;-72
2021/11/20 11:27:24;;;;;;;9.83;6.20;;;8.50;99.90;;;;;;4975113;28;20176;-71
2021/11/20 11:29:58;;;;;;;7.40;5.23;;;8.50;99.90;;;;;;4975069;28;20676;-71
2021/11/20 11:32:25;;;;;;;9.53;6.30;;;8.50;99.90;;;;;;4973126;28;20462;-72
2021/11/20 11:35:08;;;;;;;13.43;6.53;;;8.50;99.90;;;;;;4974803;28;20477;-69
2021/11/20 11:37:42;;;;;;;7.63;5.43;;;8.60;99.90;;;;;;4975327;28;20448;-70
2021/11/20 11:40:29;;;;;;;11.87;6.53;;;8.60;99.90;;;;;;4973539;28;20425;-72
2021/11/20 11:42:59;;;;;;;7.73;5.53;;;8.60;99.90;;;;;;4973821;28;20429;-69
2021/11/20 11:45:46;;;;;;;7.70;5.70;;;8.60;99.90;;;;;;4975885;28;20425;-72
2021/11/20 11:48:41;;;;;;;12.07;5.67;;;8.70;99.90;;;;;;4975323;28;20538;-71
2021/11/20 11:51:24;;;;;;;8.20;6.17;;;8.60;99.90;;;;;;4974290;28;20431;-72
2021/11/20 11:54:11;;;;;;;10.73;6.07;;;8.50;99.90;;;;;;4971283;28;20473;-71
2021/11/20 11:56:44;;;;;;;8.60;5.97;;;8.60;99.90;;;;;;4974182;28;20413;-70
2021/11/20 11:59:24;;;;;;;9.50;6.23;;;8.60;99.90;;;;;;4968973;28;20521;-72
2021/11/20 12:01:53;;;;;;;14.87;7.27;;;8.60;99.90;;;;;;4973547;28;20432;-72
2021/11/20 12:04:34;;;;;;;9.70;6.80;;;8.50;99.90;;;;;;4973726;28;20417;-72
2021/11/20 12:07:25;;;;;;;9.70;7.57;;;8.50;99.90;;;;;;4972278;28;20422;-72
2021/11/20 12:10:06;;;;;;;9.30;6.70;;;8.50;99.90;;;;;;4972586;28;20432;-72
2021/11/20 12:12:39;;;;;;;9.13;6.50;;;8.60;99.90;;;;;;4978609;28;20496;-71
2021/11/20 12:15:12;;;;;;;10.27;7.00;;;8.70;99.90;;;;;;4991143;28;20521;-69
2021/11/20 12:18:02;;;;;;;9.10;4.60;;;8.80;99.90;;;;;;4992569;28;20415;-71
2021/11/20 12:20:54;;;;;;;8.67;3.87;;;8.70;99.90;;;;;;4990899;28;20405;-71
2021/11/20 12:23:48;;;;;;;6.73;4.10;;;8.50;99.90;;;;;;4992487;28;20504;-72
2021/11/20 12:26:26;;;;;;;5.50;4.63;;;8.70;99.90;;;;;;4992968;28;20447;-69
2021/11/20 12:28:55;;;;;;;4.93;4.43;;;8.60;99.90;;;;;;4993583;28;20784;-71
2021/11/20 12:31:56;;;;;;;9.40;4.80;;;8.70;99.90;;;;;;4992557;28;20468;-71
2021/11/20 12:34:53;;;;;;;7.40;4.90;;;8.70;99.90;;;;;;4988140;28;20527;-73
2021/11/20 12:37:40;;;;;;;7.30;4.60;;;8.70;99.90;;;;;;4991039;28;20466;-71
2021/11/20 12:40:25;;;;;;;7.47;5.60;;;8.70;99.90;;;;;;4992113;28;20415;-71
2021/11/20 12:43:27;;;;;;;9.13;5.47;;;8.70;99.90;;;;;;4990459;28;20504;-71
2021/11/20 12:46:29;;;;;;;7.63;5.20;;;8.60;99.90;;;;;;4992281;28;20422;-71
2021/11/20 12:48:55;;;;;;;7.50;4.90;;;8.60;99.90;;;;;;4992312;28;20442;-73
2021/11/20 12:51:45;;;;;;;10.40;5.83;;;8.70;99.90;;;;;;4990530;28;20433;-71
2021/11/20 12:54:53;;;;;;;6.17;5.20;;;8.70;99.90;;;;;;4992318;28;20220;-72
2021/11/20 12:57:40;;;;;;;6.33;5.23;;;8.70;99.90;;;;;;4992511;28;20975;-70
2021/11/20 13:00:08;;;;;;;8.83;5.33;;;8.70;99.90;;;;;;4992522;28;20396;-71
2021/11/20 13:02:58;;;;;;;5.90;4.73;;;8.60;99.90;;;;;;4992150;28;20804;-71
2021/11/20 13:05:45;;;;;;;8.13;5.70;;;8.60;99.90;;;;;;4991129;28;20412;-72
2021/11/20 13:08:29;;;;;;;10.80;6.30;;;8.60;99.90;;;;;;4991775;28;20771;-72
2021/11/20 13:10:58;;;;;;;8.70;5.77;;;8.70;99.90;;;;;;4992293;28;20260;-69
2021/11/20 13:13:42;;;;;;;10.47;5.70;;;8.60;99.90;;;;;;4990180;28;20463;-71
2021/11/20 13:16:16;;;;;;;11.50;5.70;;;8.70;99.90;;;;;;4992127;28;20413;-71
2021/11/20 13:19:08;;;;;;;11.17;6.70;;;8.70;99.90;;;;;;4992475;28;20413;-72
2021/11/20 13:21:41;;;;;;;8.63;5.87;;;8.70;99.90;;;;;;4992426;28;20414;-71
2021/11/20 13:24:11;;;;;;;11.13;6.90;;;8.70;99.90;;;;;;4992121;28;20954;-70
2021/11/20 13:29:33;;;;;;;10.60;7.47;;;8.60;99.90;;;;;;4991586;28;20407;-71
2021/11/20 13:32:02;;;;;;;15.10;7.70;;;8.60;99.90;;;;;;4990987;28;20455;-72
2021/11/20 13:34:28;;;;;;;9.70;6.40;;;8.70;99.90;;;;;;4991554;28;20520;-71
2021/11/20 13:36:53;;;;;;;7.73;6.37;;;8.70;99.90;;;;;;4992126;28;20412;-72
2021/11/20 13:39:19;;;;;;;7.83;6.90;;;8.60;99.90;;;;;;4992065;28;20864;-69
2021/11/20 13:41:53;;;;;;;7.17;6.27;;;8.60;99.90;;;;;;4991830;28;20229;-72
2021/11/20 13:44:19;;;;;;;8.50;6.30;;;8.70;99.90;;;;;;4991964;28;20268;-71
2021/11/20 13:46:48;;;;;;;9.37;6.33;;;8.70;99.90;;;;;;4991873;28;20427;-71
2021/11/20 13:49:16;;;;;;;13.80;7.30;;;8.80;99.90;;;;;;4991921;28;20420;-72
2021/11/20 13:51:42;;;;;;;8.40;7.37;;;8.70;99.90;;;;;;4991628;28;20461;-71
2021/11/20 13:54:12;;;;;;;9.00;7.27;;;8.60;99.90;;;;;;4991626;28;20459;-72
2021/11/20 13:56:40;;;;;;;13.23;7.30;;;8.60;99.90;;;;;;4991911;28;20409;-71
2021/11/20 13:59:10;;;;;;;11.10;7.07;;;8.60;99.90;;;;;;4991961;28;20417;-71
2021/11/20 14:01:56;;;;;;;11.27;7.70;;;8.60;99.90;;;;;;4991877;28;20783;-71
2021/11/20 14:04:25;;;;;;;11.90;6.90;;;8.60;99.90;;;;;;4995349;28;20922;-71
2021/11/20 14:07:02;;;;;;;11.90;7.87;;;8.60;99.90;;;;;;4995854;28;20465;-71
2021/11/20 14:09:28;;;;;;;13.00;8.57;;;8.50;99.90;;;;;;4995665;28;20454;-72
2021/11/20 14:14:28;;;;;;;12.60;7.63;;;8.40;99.90;;;;;;4995288;28;20469;-71
2021/11/20 14:16:54;;;;;;;10.43;8.00;;;8.30;99.90;;;;;;4994544;28;20422;-69
2021/11/20 14:19:28;;;;;;;8.70;6.40;;;8.30;99.90;;;;;;4995587;28;20565;-70
2021/11/20 14:22:02;;;;;;;12.97;7.33;;;8.30;99.90;;;;;;4995671;28;20203;-71
2021/11/20 14:24:33;;;;;;;12.93;7.57;;;8.30;99.90;;;;;;4996767;28;20427;-71
2021/11/20 14:27:00;;;;;;;11.77;8.03;;;8.30;99.90;;;;;;4996567;28;20789;-71
2021/11/20 14:29:35;;;;;;;9.67;7.47;;;8.30;99.90;;;;;;4995709;28;20426;-71
2021/11/20 14:32:05;;;;;;;13.23;8.60;;;8.20;99.90;;;;;;4995380;28;20605;-72
2021/11/20 14:34:45;;;;;;;12.63;7.87;;;8.20;99.90;;;;;;4995114;28;20544;-71
2021/11/20 14:37:31;;;;;;;13.67;8.93;;;8.10;99.90;;;;;;4995521;28;20416;-71
2021/11/20 14:40:08;;;;;;;11.40;7.20;;;8.10;99.90;;;;;;4995637;28;20416;-72
2021/11/20 14:42:36;;;;;;;11.53;7.70;;;8.10;99.90;;;;;;4993820;28;20431;-71
2021/11/20 14:45:15;;;;;;;12.50;7.30;;;8.00;99.90;;;;;;4995072;28;20419;-72
2021/11/20 14:47:42;;;;;;;11.00;7.33;;;8.10;99.90;;;;;;4995288;28;20415;-71
2021/11/20 14:50:09;;;;;;;10.17;7.13;;;8.10;99.90;;;;;;4994877;28;20424;-71
2021/11/20 14:52:35;;;;;;;10.40;6.77;;;8.10;99.90;;;;;;4994650;28;20438;-71
2021/11/20 14:55:03;;;;;;;10.77;7.20;;;8.10;99.90;;;;;;4994919;28;20468;-71
2021/11/20 14:57:31;;;;;;;9.13;6.57;;;8.10;99.90;;;;;;4994749;28;20177;-71
2021/11/20 14:59:59;;;;;;;10.63;7.43;;;8.10;99.90;;;;;;4994883;28;20447;-71
2021/11/20 15:02:25;;;;;;;14.10;7.50;;;8.10;99.90;;;;;;4994473;28;20428;-72
2021/11/20 15:04:53;;;;;;;11.13;7.37;;;8.10;99.90;;;;;;4994644;28;20916;-72
2021/11/20 15:07:18;;;;;;;10.57;6.67;;;8.00;99.90;;;;;;4994597;28;20849;-70
2021/11/20 15:09:44;;;;;;;12.53;7.40;;;8.00;99.90;;;;;;4994743;28;20418;-71
2021/11/20 15:12:11;;;;;;;10.40;6.90;;;7.90;99.90;;;;;;4994453;28;20219;-70
2021/11/20 15:14:38;;;;;;;10.70;6.80;;;7.90;99.90;;;;;;4991782;28;20263;-73
2021/11/20 15:17:04;;;;;;;11.80;7.00;;;7.80;99.90;;;;;;4994623;28;20754;-71
2021/11/20 15:19:32;;;;;;;12.47;8.10;;;7.70;99.90;;;;;;4994072;28;20389;-71
2021/11/20 15:21:58;;;;;;;12.63;7.70;;;7.60;99.90;;;;;;4994493;28;20438;-70
2021/11/20 15:24:25;;;;;;;8.50;7.37;;;7.60;99.90;;;;;;4993840;28;20419;-72
2021/11/20 15:26:54;;;;;;;8.50;6.90;;;7.60;99.90;;;;;;4994536;28;20410;-70
2021/11/20 15:29:20;;;;;;;9.53;6.80;;;7.60;99.90;;;;;;4994059;28;20400;-71
2021/11/20 15:31:46;;;;;;;9.47;6.60;;;7.60;99.90;;;;;;4994246;28;20969;-71
2021/11/20 15:34:11;;;;;;;11.33;7.63;;;7.60;99.90;;;;;;4993711;28;20210;-72
2021/11/20 15:36:37;;;;;;;9.53;7.47;;;7.50;99.90;;;;;;4994229;28;20710;-71
2021/11/20 15:39:05;;;;;;;7.60;6.83;;;7.50;99.90;;;;;;4994243;28;20172;-72
2021/11/20 15:41:31;;;;;;;9.80;7.33;;;7.50;99.90;;;;;;4993918;28;20293;-71
2021/11/20 15:43:57;;;;;;;8.10;7.10;;;7.40;99.90;;;;;;4993837;28;20448;-71
2021/11/20 15:46:23;;;;;;;11.47;8.27;;;7.30;99.90;;;;;;4993926;28;20405;-71
2021/11/20 15:48:50;;;;;;;8.53;6.60;;;7.30;99.90;;;;;;4993964;28;20175;-71
2021/11/20 15:51:16;;;;;;;11.30;7.47;;;7.20;99.90;;;;;;4993730;28;20245;-71
2021/11/20 15:53:41;;;;;;;9.10;7.30;;;7.10;99.90;;;;;;4993558;28;20450;-72
2021/11/20 15:56:07;;;;;;;8.30;7.20;;;7.00;99.90;;;;;;4993778;28;20418;-73
2021/11/20 15:58:32;;;;;;;10.53;7.30;;;6.90;99.90;;;;;;4993624;28;20171;-73
2021/11/20 16:00:58;;;;;;;14.40;8.00;;;6.80;99.90;;;;;;4993723;28;20202;-73
2021/11/20 16:03:23;;;;;;;8.17;7.37;;;6.60;99.90;;;;;;4993153;28;20172;-73
2021/11/20 16:05:49;;;;;;;10.23;7.20;;;6.60;99.90;;;;;;4993675;28;20192;-73
2021/11/20 16:08:15;;;;;;;8.07;7.20;;;6.50;99.90;;;;;;4993273;28;20175;-73
2021/11/20 16:10:42;;;;;;;11.57;8.93;;;6.30;99.90;;;;;;4993535;28;20195;-74
2021/11/20 16:13:08;;;;;;;11.83;7.20;;;6.30;99.90;;;;;;4993023;28;20422;-73
2021/11/20 16:15:34;;;;;;;11.63;8.43;;;6.20;99.90;;;;;;4993299;28;20457;-73
2021/11/20 16:18:02;;;;;;;10.37;8.67;;;6.10;99.90;;;;;;4993277;28;20856;-73
2021/11/20 16:20:28;;;;;;;8.47;7.57;;;6.00;99.90;;;;;;4993123;28;20418;-73
2021/11/20 16:22:54;;;;;;;10.80;8.67;;;5.90;99.90;;;;;;4992873;28;20431;-73
2021/11/20 16:25:19;;;;;;;12.23;8.27;;;5.80;99.90;;;;;;4992669;28;20182;-74
2021/11/20 16:27:45;;;;;;;14.10;9.20;;;5.80;99.90;;;;;;4993010;28;20193;-74
2021/11/20 16:30:11;;;;;;;8.63;7.40;;;5.70;99.90;;;;;;4992814;28;20173;-73
2021/11/20 16:32:40;;;;;;;11.40;7.60;;;5.50;99.90;;;;;;4992873;28;20206;-73
2021/11/20 16:35:06;;;;;;;11.07;6.17;;;5.50;99.90;;;;;;4992459;28;20466;-74
2021/11/20 16:37:32;;;;;;;10.37;7.03;;;5.40;99.90;;;;;;4992962;28;20459;-73
2021/11/20 16:39:57;;;;;;;9.60;7.33;;;5.40;99.90;;;;;;4992662;28;20505;-74
2021/11/20 16:42:24;;;;;;;8.27;6.80;;;5.30;99.90;;;;;;4992649;28;20734;-73
2021/11/20 16:44:50;;;;;;;13.07;8.43;;;5.20;99.90;;;;;;4992990;28;20176;-73
2021/11/20 16:47:15;;;;;;;9.43;7.20;;;5.20;99.90;;;;;;4993760;28;20872;-73
2021/11/20 16:49:41;;;;;;;9.97;7.80;;;5.10;99.90;;;;;;4992777;28;20192;-73
2021/11/20 16:54:35;;;;;;;8.80;7.23;;;5.00;99.90;;;;;;4992432;28;20723;-73
2021/11/20 16:57:01;;;;;;;8.90;7.97;;;4.90;99.90;;;;;;4992645;28;20226;-73
2021/11/20 16:59:26;;;;;;;9.63;7.57;;;4.80;99.90;;;;;;4992619;28;20420;-73
2021/11/20 17:01:53;;;;;;;7.20;6.23;;;4.80;99.90;;;;;;4992435;28;20428;-72
2021/11/20 17:04:19;;;;;;;12.37;7.27;;;4.70;99.90;;;;;;4992163;28;20183;-72
2021/11/20 17:06:45;;;;;;;7.60;6.40;;;4.70;99.90;;;;;;4992384;28;20420;-72
2021/11/20 17:09:11;;;;;;;10.73;7.97;;;4.60;99.90;;;;;;4992243;28;20188;-71
2021/11/20 17:11:37;;;;;;;41.60;24.00;;;4.50;99.90;;;;;;4992282;28;20954;-72
2021/11/20 17:14:03;;;;;;;38.37;22.00;;;4.40;99.90;;;;;;4991934;28;20211;-73
2021/11/20 17:16:29;;;;;;;14.63;11.10;;;4.40;99.90;;;;;;4992321;28;20169;-73
2021/11/20 17:18:55;;;;;;;11.17;9.03;;;4.30;99.90;;;;;;4992023;28;20929;-73
2021/11/20 17:21:21;;;;;;;7.97;6.93;;;4.20;99.90;;;;;;4992165;28;20203;-72
2021/11/20 17:23:48;;;;;;;39.87;25.77;;;4.20;99.90;;;;;;4991960;28;20185;-73
2021/11/20 17:26:18;;;;;;;17.00;11.40;;;4.10;99.90;;;;;;4990867;28;20944;-74
2021/11/20 17:28:44;;;;;;;20.97;13.07;;;4.10;99.90;;;;;;4958163;28;20468;-73
2021/11/20 17:31:11;;;;;;;27.83;15.90;;;4.00;99.90;;;;;;4971811;28;20546;-73
2021/11/20 17:33:37;;;;;;;25.90;17.33;;;4.00;99.90;;;;;;4971744;28;20427;-73
2021/11/20 17:36:03;;;;;;;31.07;16.20;;;3.90;99.90;;;;;;4972030;28;20477;-72
2021/11/20 17:38:29;;;;;;;28.70;17.97;;;3.90;99.90;;;;;;4959705;28;20461;-72
2021/11/20 17:40:54;;;;;;;31.27;15.47;;;3.80;99.90;;;;;;4971546;28;20453;-73
2021/11/20 17:43:20;;;;;;;21.97;14.23;;;3.80;99.90;;;;;;4971585;28;20708;-73
2021/11/20 17:45:46;;;;;;;39.33;22.17;;;3.70;99.90;;;;;;4971907;28;20219;-72
2021/11/20 17:48:11;;;;;;;22.90;15.80;;;3.70;99.90;;;;;;4969323;28;20212;-73